createdAt,value
2022-12-24T00:01:05.393Z,97235.00
2022-12-24T00:03:33.525Z,97243.00
2022-12-24T00:06:05.761Z,97235.00
2022-12-24T00:08:33.708Z,97242.00
2022-12-24T00:11:01.475Z,97253.00
2022-12-24T00:13:29.186Z,97252.00
2022-12-24T00:15:56.853Z,97245.00
2022-12-24T00:18:25.956Z,97254.00
2022-12-24T00:20:53.624Z,97264.00
2022-12-24T00:23:22.000Z,97259.00
2022-12-24T00:25:49.650Z,97267.00
2022-12-24T00:28:18.149Z,97267.00
2022-12-24T00:30:45.813Z,97263.00
2022-12-24T00:33:15.345Z,97271.00
2022-12-24T00:35:46.205Z,97266.00
2022-12-24T00:38:13.804Z,97267.00
2022-12-24T00:40:41.444Z,97269.00
2022-12-24T00:43:09.118Z,97286.00
2022-12-24T00:45:36.770Z,97277.00
2022-12-24T00:48:04.684Z,97284.00
2022-12-24T00:50:32.391Z,97278.00
2022-12-24T00:53:01.379Z,97274.00
2022-12-24T00:55:29.036Z,97276.00
2022-12-24T00:57:56.681Z,97270.00
2022-12-24T01:00:24.446Z,97272.00
2022-12-24T01:02:52.487Z,97274.00
2022-12-24T01:05:20.999Z,97277.00
2022-12-24T01:07:47.755Z,97273.00
2022-12-24T01:10:19.176Z,97282.00
2022-12-24T01:12:47.711Z,97291.00
2022-12-24T01:15:16.618Z,97293.00
2022-12-24T01:17:44.306Z,97305.00
2022-12-24T01:20:18.753Z,97320.00
2022-12-24T01:22:46.849Z,97314.00
2022-12-24T01:25:15.891Z,97316.00
2022-12-24T01:27:43.542Z,97326.00
2022-12-24T01:30:15.885Z,97324.00
2022-12-24T01:32:43.831Z,97330.00
2022-12-24T01:35:12.574Z,97340.00
2022-12-24T01:37:40.338Z,97340.00
2022-12-24T01:40:42.176Z,97351.00
2022-12-24T01:43:28.485Z,97347.00
2022-12-24T01:45:56.765Z,97351.00
2022-12-24T01:48:34.957Z,97353.00
2022-12-24T01:51:07.643Z,97356.00
2022-12-24T01:53:37.790Z,97356.00
2022-12-24T01:56:07.684Z,97361.00
2022-12-24T01:58:38.388Z,97365.00
2022-12-24T02:01:06.464Z,97354.00
2022-12-24T02:03:34.322Z,97362.00
2022-12-24T02:06:02.642Z,97361.00
2022-12-24T02:08:40.007Z,97373.00
2022-12-24T02:11:12.233Z,97383.00
2022-12-24T02:13:42.872Z,97394.00
2022-12-24T02:16:19.318Z,97390.00
2022-12-24T02:18:58.171Z,97398.00
2022-12-24T02:21:45.945Z,97394.00
2022-12-24T02:24:59.202Z,97409.00
2022-12-24T02:27:48.009Z,97420.00
2022-12-24T02:30:19.565Z,97421.00
2022-12-24T02:33:01.743Z,97419.00
2022-12-24T02:35:37.787Z,97421.00
2022-12-24T02:38:12.064Z,97430.00
2022-12-24T02:40:43.874Z,97419.00
2022-12-24T02:43:14.885Z,97418.00
2022-12-24T02:45:47.329Z,97426.00
2022-12-24T02:48:18.431Z,97432.00
2022-12-24T02:51:00.486Z,97426.00
2022-12-24T02:53:28.142Z,97433.00
2022-12-24T02:56:13.352Z,97438.00
2022-12-24T02:58:51.344Z,97443.00
2022-12-24T03:01:30.196Z,97446.00
2022-12-24T03:04:10.541Z,97449.00
2022-12-24T03:06:45.585Z,97450.00
2022-12-24T03:09:20.677Z,97460.00
2022-12-24T03:11:56.296Z,97455.00
2022-12-24T03:14:24.293Z,97457.00
2022-12-24T03:16:53.322Z,97468.00
2022-12-24T03:19:22.922Z,97467.00
2022-12-24T03:21:52.006Z,97472.00
2022-12-24T03:24:20.751Z,97475.00
2022-12-24T03:26:48.837Z,97485.00
2022-12-24T03:29:17.820Z,97483.00
2022-12-24T03:31:47.751Z,97481.00
2022-12-24T03:34:17.886Z,97481.00
2022-12-24T03:36:45.904Z,97477.00
2022-12-24T03:39:13.589Z,97481.00
2022-12-24T03:41:41.290Z,97485.00
2022-12-24T03:44:08.941Z,97489.00
2022-12-24T03:46:36.650Z,97486.00
2022-12-24T03:49:04.299Z,97494.00
2022-12-24T03:51:33.800Z,97509.00
2022-12-24T03:54:01.911Z,97510.00
2022-12-24T03:56:29.629Z,97496.00
2022-12-24T03:58:57.303Z,97501.00
2022-12-24T04:01:25.069Z,97515.00
2022-12-24T04:03:52.827Z,97518.00
2022-12-24T04:06:20.526Z,97516.00
2022-12-24T04:08:51.376Z,97514.00
2022-12-24T04:11:19.879Z,97518.00
2022-12-24T04:13:47.572Z,97516.00
2022-12-24T04:16:17.120Z,97515.00
2022-12-24T04:18:45.353Z,97526.00
2022-12-24T04:21:13.122Z,97525.00
2022-12-24T04:23:42.183Z,97526.00
2022-12-24T04:26:12.856Z,97533.00
2022-12-24T04:28:41.670Z,97531.00
2022-12-24T04:31:12.021Z,97532.00
2022-12-24T04:33:39.776Z,97540.00
2022-12-24T04:36:08.956Z,97541.00
2022-12-24T04:38:39.835Z,97543.00
2022-12-24T04:41:10.027Z,97553.00
2022-12-24T04:43:39.105Z,97546.00
2022-12-24T04:46:07.948Z,97553.00
2022-12-24T04:48:35.722Z,97569.00
2022-12-24T04:51:04.230Z,97567.00
2022-12-24T04:53:32.432Z,97560.00
2022-12-24T04:56:00.254Z,97566.00
2022-12-24T04:58:28.557Z,97566.00
2022-12-24T05:00:57.814Z,97558.00
2022-12-24T05:03:25.553Z,97551.00
2022-12-24T05:05:59.616Z,97558.00
2022-12-24T05:08:28.997Z,97558.00
2022-12-24T05:10:57.621Z,97563.00
2022-12-24T05:13:31.869Z,97575.00
2022-12-24T05:16:06.064Z,97575.00
2022-12-24T05:18:33.814Z,97566.00
2022-12-24T05:21:01.469Z,97567.00
2022-12-24T05:23:46.656Z,97575.00
2022-12-24T05:26:23.324Z,97570.00
2022-12-24T05:28:51.743Z,97567.00
2022-12-24T05:31:21.576Z,97570.00
2022-12-24T05:33:49.399Z,97577.00
2022-12-24T05:36:17.329Z,97590.00
2022-12-24T05:38:44.973Z,97587.00
2022-12-24T05:41:12.780Z,97585.00
2022-12-24T05:43:40.568Z,97602.00
2022-12-24T05:46:11.972Z,97601.00
2022-12-24T05:48:41.189Z,97596.00
2022-12-24T05:51:10.999Z,97603.00
2022-12-24T05:53:39.550Z,97607.00
2022-12-24T05:56:09.747Z,97609.00
2022-12-24T05:58:38.243Z,97611.00
2022-12-24T06:01:07.082Z,97614.00
2022-12-24T06:03:35.598Z,97618.00
2022-12-24T06:06:06.938Z,97620.00
2022-12-24T06:08:35.677Z,97618.00
2022-12-24T06:11:06.857Z,97623.00
2022-12-24T06:13:34.809Z,97629.00
2022-12-24T06:16:05.508Z,97628.00
2022-12-24T06:18:34.538Z,97616.00
2022-12-24T06:21:04.652Z,97626.00
2022-12-24T06:23:34.228Z,97624.00
2022-12-24T06:26:03.232Z,97625.00
2022-12-24T06:28:32.537Z,97629.00
2022-12-24T06:31:03.320Z,97629.00
2022-12-24T06:33:31.902Z,97632.00
2022-12-24T06:36:00.192Z,97637.00
2022-12-24T06:38:30.724Z,97631.00
2022-12-24T06:40:58.705Z,97635.00
2022-12-24T06:43:26.693Z,97635.00
2022-12-24T06:45:54.538Z,97628.00
2022-12-24T06:48:22.213Z,97633.00
2022-12-24T06:50:49.910Z,97628.00
2022-12-24T06:53:17.604Z,97637.00
2022-12-24T06:55:46.672Z,97650.00
2022-12-24T06:58:14.277Z,97654.00
2022-12-24T07:00:41.914Z,97657.00
2022-12-24T07:03:09.607Z,97654.00
2022-12-24T07:05:37.374Z,97658.00
2022-12-24T07:08:05.477Z,97664.00
2022-12-24T07:10:33.230Z,97660.00
2022-12-24T07:13:02.241Z,97668.00
2022-12-24T07:15:29.873Z,97676.00
2022-12-24T07:17:57.525Z,97679.00
2022-12-24T07:20:25.156Z,97674.00
2022-12-24T07:22:52.821Z,97674.00
2022-12-24T07:25:20.474Z,97689.00
2022-12-24T07:27:48.152Z,97700.00
2022-12-24T07:30:17.715Z,97701.00
2022-12-24T07:32:45.404Z,97698.00
2022-12-24T07:35:13.162Z,97704.00
2022-12-24T07:37:40.848Z,97712.00
2022-12-24T07:40:10.033Z,97713.00
2022-12-24T07:42:37.789Z,97714.00
2022-12-24T07:45:06.701Z,97709.00
2022-12-24T07:47:36.085Z,97714.00
2022-12-24T07:50:03.799Z,97723.00
2022-12-24T07:52:31.506Z,97713.00
2022-12-24T07:54:59.231Z,97710.00
2022-12-24T07:57:26.987Z,97707.00
2022-12-24T07:59:54.631Z,97713.00
2022-12-24T08:02:22.391Z,97706.00
2022-12-24T08:04:51.473Z,97717.00
2022-12-24T08:07:19.276Z,97711.00
2022-12-24T08:09:46.916Z,97718.00
2022-12-24T08:12:14.641Z,97725.00
2022-12-24T08:14:42.290Z,97733.00
2022-12-24T08:17:09.962Z,97742.00
2022-12-24T08:19:37.625Z,97738.00
2022-12-24T08:22:06.601Z,97739.00
2022-12-24T08:24:34.285Z,97744.00
2022-12-24T08:27:01.966Z,97748.00
2022-12-24T08:29:29.668Z,97752.00
2022-12-24T08:31:57.351Z,97754.00
2022-12-24T08:34:27.177Z,97762.00
2022-12-24T08:36:54.825Z,97759.00
2022-12-24T08:39:24.983Z,97766.00
2022-12-24T08:41:52.673Z,97761.00
2022-12-24T08:44:20.337Z,97768.00
2022-12-24T08:46:48.109Z,97761.00
2022-12-24T08:49:16.061Z,97779.00
2022-12-24T08:51:43.725Z,97773.00
2022-12-24T08:54:11.411Z,97784.00
2022-12-24T08:56:40.591Z,97793.00
2022-12-24T08:59:08.250Z,97786.00
2022-12-24T09:01:37.103Z,97797.00
2022-12-24T09:04:05.037Z,97798.00
2022-12-24T09:06:33.539Z,97806.00
2022-12-24T09:09:01.256Z,97806.00
2022-12-24T09:11:29.092Z,97805.00
2022-12-24T09:13:58.107Z,97805.00
2022-12-24T09:16:25.862Z,97807.00
2022-12-24T09:18:53.550Z,97811.00
2022-12-24T09:21:21.283Z,97817.00
2022-12-24T09:23:49.403Z,97816.00
2022-12-24T09:26:20.310Z,97829.00
2022-12-24T09:28:48.457Z,97831.00
2022-12-24T09:31:17.765Z,97830.00
2022-12-24T09:33:47.947Z,97838.00
2022-12-24T09:36:15.878Z,97845.00
2022-12-24T09:38:43.695Z,97842.00
2022-12-24T09:41:16.619Z,97836.00
2022-12-24T09:43:50.511Z,97839.00
2022-12-24T09:46:24.287Z,97840.00
2022-12-24T09:48:56.193Z,97844.00
2022-12-24T09:51:30.424Z,97839.00
2022-12-24T09:54:04.092Z,97834.00
2022-12-24T09:56:40.012Z,97838.00
2022-12-24T09:59:12.675Z,97833.00
2022-12-24T10:01:42.294Z,97835.00
2022-12-24T10:04:14.280Z,97832.00
2022-12-24T10:06:49.720Z,97839.00
2022-12-24T10:09:24.383Z,97839.00
2022-12-24T10:11:58.018Z,97843.00
2022-12-24T10:14:39.680Z,97844.00
2022-12-24T10:17:25.316Z,97852.00
2022-12-24T10:20:01.295Z,97844.00
2022-12-24T10:22:35.365Z,97844.00
2022-12-24T10:25:10.853Z,97841.00
2022-12-24T10:27:40.791Z,97847.00
2022-12-24T10:30:17.558Z,97854.00
2022-12-24T10:32:49.454Z,97856.00
2022-12-24T10:35:23.889Z,97856.00
2022-12-24T10:37:52.609Z,97853.00
2022-12-24T10:40:29.358Z,97853.00
2022-12-24T10:42:57.101Z,97850.00
2022-12-24T10:45:28.287Z,97851.00
2022-12-24T10:48:03.387Z,97852.00
2022-12-24T10:50:35.309Z,97857.00
2022-12-24T10:53:15.180Z,97853.00
2022-12-24T10:55:43.104Z,97857.00
2022-12-24T10:58:17.721Z,97851.00
2022-12-24T11:00:51.607Z,97868.00
2022-12-24T11:03:29.381Z,97873.00
2022-12-24T11:06:07.137Z,97867.00
2022-12-24T11:08:35.658Z,97867.00
2022-12-24T11:11:06.247Z,97868.00
2022-12-24T11:13:38.687Z,97871.00
2022-12-24T11:16:09.267Z,97871.00
2022-12-24T11:18:50.529Z,97868.00
2022-12-24T11:21:25.606Z,97868.00
2022-12-24T11:23:56.657Z,97857.00
2022-12-24T11:26:27.208Z,97863.00
2022-12-24T11:29:14.558Z,97864.00
2022-12-24T11:31:42.459Z,97864.00
2022-12-24T11:34:35.602Z,97857.00
2022-12-24T11:37:14.797Z,97855.00
2022-12-24T11:39:47.113Z,97858.00
2022-12-24T11:42:27.385Z,97856.00
2022-12-24T11:44:57.371Z,97854.00
2022-12-24T11:47:34.395Z,97848.00
2022-12-24T11:50:27.774Z,97862.00
2022-12-24T11:53:03.925Z,97857.00
2022-12-24T11:55:42.116Z,97850.00
2022-12-24T11:58:19.863Z,97855.00
2022-12-24T12:00:49.279Z,97857.00
2022-12-24T12:03:28.959Z,97854.00
2022-12-24T12:06:01.497Z,97861.00
2022-12-24T12:08:30.652Z,97852.00
2022-12-24T12:11:00.457Z,97856.00
2022-12-24T12:13:33.259Z,97854.00
2022-12-24T12:16:15.856Z,97858.00
2022-12-24T12:18:50.260Z,97865.00
2022-12-24T12:21:21.614Z,97865.00
2022-12-24T12:23:55.035Z,97865.00
2022-12-24T12:26:26.212Z,97864.00
2022-12-24T12:28:58.956Z,97854.00
2022-12-24T12:31:32.493Z,97862.00
2022-12-24T12:34:05.901Z,97868.00
2022-12-24T12:36:39.778Z,97868.00
2022-12-24T12:39:07.648Z,97870.00
2022-12-24T12:41:46.967Z,97868.00
2022-12-24T12:44:32.030Z,97864.00
2022-12-24T12:47:13.059Z,97877.00
2022-12-24T12:49:49.795Z,97873.00
2022-12-24T12:52:28.177Z,97871.00
2022-12-24T12:55:08.666Z,97866.00
2022-12-24T12:57:40.177Z,97878.00
2022-12-24T13:00:10.870Z,97867.00
2022-12-24T13:02:53.390Z,97863.00
2022-12-24T13:05:54.423Z,97867.00
2022-12-24T13:08:40.063Z,97869.00
2022-12-24T13:11:17.825Z,97869.00
2022-12-24T13:14:19.083Z,97881.00
2022-12-24T13:17:22.653Z,97878.00
2022-12-24T13:20:13.027Z,97888.00
2022-12-24T13:22:40.799Z,97880.00
2022-12-24T13:25:23.443Z,97883.00
2022-12-24T13:27:51.084Z,97883.00
2022-12-24T13:30:38.000Z,97893.00
2022-12-24T13:33:06.256Z,97889.00
2022-12-24T13:35:38.168Z,97891.00
2022-12-24T13:38:32.637Z,97891.00
2022-12-24T13:41:38.877Z,97895.00
2022-12-24T13:44:32.587Z,97893.00
2022-12-24T13:47:05.020Z,97903.00
2022-12-24T13:49:35.813Z,97905.00
2022-12-24T13:52:09.327Z,97911.00
2022-12-24T13:54:39.574Z,97913.00
2022-12-24T13:57:26.643Z,97912.00
2022-12-24T14:00:01.516Z,97915.00
2022-12-24T14:02:33.635Z,97911.00
2022-12-24T14:05:05.665Z,97911.00
2022-12-24T14:07:35.326Z,97917.00
2022-12-24T14:10:06.256Z,97908.00
2022-12-24T14:12:47.895Z,97917.00
2022-12-24T14:16:04.833Z,97913.00
2022-12-24T14:18:38.512Z,97913.00
2022-12-24T14:21:08.119Z,97917.00
2022-12-24T14:23:46.804Z,97927.00
2022-12-24T14:26:18.414Z,97922.00
2022-12-24T14:28:51.780Z,97927.00
2022-12-24T14:31:20.487Z,97929.00
2022-12-24T14:33:49.671Z,97932.00
2022-12-24T14:36:22.927Z,97946.00
2022-12-24T14:38:51.236Z,97951.00
2022-12-24T14:41:41.883Z,97951.00
2022-12-24T14:44:22.718Z,97959.00
2022-12-24T14:46:55.796Z,97961.00
2022-12-24T14:49:38.695Z,97966.00
2022-12-24T14:52:37.912Z,97957.00
2022-12-24T14:55:28.806Z,97957.00
2022-12-24T14:58:27.452Z,97958.00
2022-12-24T15:00:57.517Z,97960.00
2022-12-24T15:03:27.932Z,97960.00
2022-12-24T15:05:59.639Z,97966.00
2022-12-24T15:08:31.909Z,97977.00
2022-12-24T15:11:03.113Z,97975.00
2022-12-24T15:13:37.088Z,97973.00
2022-12-24T15:16:07.117Z,97984.00
2022-12-24T15:18:37.800Z,97981.00
2022-12-24T15:21:09.529Z,97974.00
2022-12-24T15:23:38.413Z,97975.00
2022-12-24T15:26:21.807Z,97980.00
2022-12-24T15:28:49.864Z,97981.00
2022-12-24T15:31:20.430Z,97972.00
2022-12-24T15:33:48.936Z,97965.00
2022-12-24T15:36:25.257Z,97968.00
2022-12-24T15:38:57.059Z,97977.00
2022-12-24T15:41:27.985Z,97978.00
2022-12-24T15:44:02.268Z,97984.00
2022-12-24T15:46:32.181Z,97987.00
2022-12-24T15:49:02.435Z,97991.00
2022-12-24T15:51:34.667Z,97985.00
2022-12-24T15:54:12.487Z,97987.00
2022-12-24T15:56:44.273Z,97979.00
2022-12-24T15:59:35.982Z,97986.00
2022-12-24T16:02:36.266Z,97991.00
2022-12-24T16:05:30.128Z,98006.00
2022-12-24T16:08:10.145Z,98011.00
2022-12-24T16:10:40.983Z,98017.00
2022-12-24T16:13:14.974Z,98014.00
2022-12-24T16:15:51.087Z,98016.00
2022-12-24T16:18:25.003Z,98016.00
2022-12-24T16:20:54.352Z,98024.00
2022-12-24T16:23:25.434Z,98030.00
2022-12-24T16:25:53.904Z,98034.00
2022-12-24T16:28:23.244Z,98028.00
2022-12-24T16:30:51.475Z,98031.00
2022-12-24T16:33:20.715Z,98033.00
2022-12-24T16:35:48.748Z,98033.00
2022-12-24T16:38:17.190Z,98036.00
2022-12-24T16:40:46.204Z,98033.00
2022-12-24T16:43:31.274Z,98050.00
2022-12-24T16:46:02.168Z,98054.00
2022-12-24T16:48:30.510Z,98047.00
2022-12-24T16:50:58.295Z,98057.00
2022-12-24T16:53:26.009Z,98050.00
2022-12-24T16:55:55.514Z,98054.00
2022-12-24T16:58:23.443Z,98050.00
2022-12-24T17:00:51.133Z,98056.00
2022-12-24T17:03:18.868Z,98052.00
2022-12-24T17:05:46.615Z,98057.00
2022-12-24T17:08:14.723Z,98051.00
2022-12-24T17:10:50.392Z,98053.00
2022-12-24T17:13:19.413Z,98058.00
2022-12-24T17:15:47.226Z,98050.00
2022-12-24T17:18:14.941Z,98053.00
2022-12-24T17:20:42.626Z,98058.00
2022-12-24T17:23:10.815Z,98051.00
2022-12-24T17:25:38.477Z,98059.00
2022-12-24T17:28:06.225Z,98052.00
2022-12-24T17:30:35.220Z,98054.00
2022-12-24T17:33:02.869Z,98061.00
2022-12-24T17:35:30.579Z,98057.00
2022-12-24T17:37:58.187Z,98056.00
2022-12-24T17:40:25.821Z,98064.00
2022-12-24T17:42:53.489Z,98064.00
2022-12-24T17:45:21.160Z,98069.00
2022-12-24T17:47:50.243Z,98057.00
2022-12-24T17:50:18.065Z,98057.00
2022-12-24T17:52:45.738Z,98061.00
2022-12-24T17:55:13.430Z,98061.00
2022-12-24T17:57:41.073Z,98060.00
2022-12-24T18:00:09.978Z,98064.00
2022-12-24T18:02:39.069Z,98068.00
2022-12-24T18:05:08.974Z,98077.00
2022-12-24T18:07:36.648Z,98081.00
2022-12-24T18:10:04.827Z,98083.00
2022-12-24T18:12:32.509Z,98086.00
2022-12-24T18:15:00.269Z,98081.00
2022-12-24T18:17:27.897Z,98091.00
2022-12-24T18:19:55.742Z,98083.00
2022-12-24T18:22:24.741Z,98091.00
2022-12-24T18:24:52.407Z,98095.00
2022-12-24T18:27:20.064Z,98092.00
2022-12-24T18:29:47.729Z,98096.00
2022-12-24T18:32:16.917Z,98090.00
2022-12-24T18:34:44.667Z,98092.00
2022-12-24T18:37:12.315Z,98086.00
2022-12-24T18:39:41.302Z,98089.00
2022-12-24T18:42:14.265Z,98095.00
2022-12-24T18:44:42.088Z,98110.00
2022-12-24T18:47:10.132Z,98106.00
2022-12-24T18:49:38.462Z,98111.00
2022-12-24T18:52:06.697Z,98110.00
2022-12-24T18:54:34.354Z,98114.00
2022-12-24T18:57:03.454Z,98107.00
2022-12-24T18:59:31.203Z,98111.00
2022-12-24T19:01:59.312Z,98115.00
2022-12-24T19:04:27.054Z,98111.00
2022-12-24T19:06:54.805Z,98104.00
2022-12-24T19:09:22.837Z,98108.00
2022-12-24T19:11:50.593Z,98096.00
2022-12-24T19:14:20.870Z,98091.00
2022-12-24T19:16:48.568Z,98085.00
2022-12-24T19:19:16.615Z,98094.00
2022-12-24T19:21:44.320Z,98088.00
2022-12-24T19:24:14.263Z,98088.00
2022-12-24T19:26:41.936Z,98075.00
2022-12-24T19:29:09.635Z,98068.00
2022-12-24T19:31:38.661Z,98066.00
2022-12-24T19:34:06.380Z,98080.00
2022-12-24T19:36:35.079Z,98083.00
2022-12-24T19:39:02.759Z,98083.00
2022-12-24T19:41:31.025Z,98086.00
2022-12-24T19:44:00.601Z,98105.00
2022-12-24T19:46:29.946Z,98101.00
2022-12-24T19:49:01.098Z,98101.00
2022-12-24T19:51:30.401Z,98100.00
2022-12-24T19:53:59.719Z,98103.00
2022-12-24T19:56:30.446Z,98111.00
2022-12-24T19:58:58.929Z,98113.00
2022-12-24T20:01:28.750Z,98117.00
2022-12-24T20:03:57.317Z,98122.00
2022-12-24T20:06:28.082Z,98134.00
2022-12-24T20:08:59.904Z,98130.00
2022-12-24T20:11:28.048Z,98140.00
2022-12-24T20:13:58.113Z,98139.00
2022-12-24T20:16:26.269Z,98137.00
2022-12-24T20:18:55.238Z,98141.00
2022-12-24T20:21:23.651Z,98142.00
2022-12-24T20:23:52.857Z,98142.00
2022-12-24T20:26:22.618Z,98143.00
2022-12-24T20:28:50.619Z,98144.00
2022-12-24T20:31:20.973Z,98142.00
2022-12-24T20:33:49.214Z,98144.00
2022-12-24T20:36:18.658Z,98148.00
2022-12-24T20:38:47.023Z,98156.00
2022-12-24T20:41:18.135Z,98156.00
2022-12-24T20:43:48.564Z,98168.00
2022-12-24T20:46:17.097Z,98156.00
2022-12-24T20:48:44.883Z,98169.00
2022-12-24T20:51:23.213Z,98181.00
2022-12-24T20:53:52.075Z,98177.00
2022-12-24T20:56:21.250Z,98173.00
2022-12-24T20:58:49.257Z,98172.00
2022-12-24T21:01:18.799Z,98168.00
2022-12-24T21:03:46.723Z,98164.00
2022-12-24T21:06:17.639Z,98175.00
2022-12-24T21:08:45.553Z,98174.00
2022-12-24T21:11:31.090Z,98182.00
2022-12-24T21:14:01.643Z,98187.00
2022-12-24T21:16:29.589Z,98184.00
2022-12-24T21:18:57.434Z,98167.00
2022-12-24T21:21:25.128Z,98173.00
2022-12-24T21:23:53.264Z,98161.00
2022-12-24T21:26:20.959Z,98158.00
2022-12-24T21:28:49.062Z,98156.00
2022-12-24T21:31:18.205Z,98158.00
2022-12-24T21:33:46.299Z,98152.00
2022-12-24T21:36:15.468Z,98148.00
2022-12-24T21:38:43.520Z,98142.00
2022-12-24T21:41:15.692Z,98146.00
2022-12-24T21:43:44.274Z,98140.00
2022-12-24T21:46:14.006Z,98135.00
2022-12-24T21:49:00.892Z,98144.00
2022-12-24T21:51:29.364Z,98143.00
2022-12-24T21:54:16.149Z,98150.00
2022-12-24T21:57:01.110Z,98153.00
2022-12-24T21:59:29.267Z,98146.00
2022-12-24T22:01:57.630Z,98153.00
2022-12-24T22:04:27.349Z,98155.00
2022-12-24T22:07:12.718Z,98156.00
2022-12-24T22:09:58.002Z,98159.00
2022-12-24T22:12:26.597Z,98161.00
2022-12-24T22:14:54.269Z,98160.00
2022-12-24T22:17:25.463Z,98166.00
2022-12-24T22:19:55.176Z,98165.00
2022-12-24T22:22:23.872Z,98167.00
2022-12-24T22:24:51.622Z,98166.00
2022-12-24T22:27:19.945Z,98169.00
2022-12-24T22:29:47.697Z,98163.00
2022-12-24T22:32:15.416Z,98164.00
2022-12-24T22:34:43.171Z,98155.00
2022-12-24T22:37:12.397Z,98161.00
2022-12-24T22:39:40.090Z,98153.00
2022-12-24T22:42:07.819Z,98159.00
2022-12-24T22:44:35.582Z,98164.00
2022-12-24T22:47:03.315Z,98168.00
2022-12-24T22:49:31.031Z,98167.00
2022-12-24T22:51:58.911Z,98171.00
2022-12-24T22:54:27.970Z,98166.00
2022-12-24T22:56:55.653Z,98156.00
2022-12-24T22:59:23.327Z,98156.00
2022-12-24T23:01:52.612Z,98145.00
2022-12-24T23:04:20.769Z,98146.00
2022-12-24T23:06:48.714Z,98152.00
2022-12-24T23:09:17.997Z,98157.00
2022-12-24T23:11:47.226Z,98163.00
2022-12-24T23:14:35.321Z,98165.00
2022-12-24T23:17:03.237Z,98158.00
2022-12-24T23:19:34.804Z,98161.00
2022-12-24T23:22:03.866Z,98156.00
2022-12-24T23:24:32.089Z,98156.00
2022-12-24T23:27:02.398Z,98152.00
2022-12-24T23:29:30.514Z,98168.00
2022-12-24T23:31:58.460Z,98177.00
2022-12-24T23:34:26.211Z,98164.00
2022-12-24T23:36:53.896Z,98176.00
2022-12-24T23:39:21.659Z,98169.00
2022-12-24T23:41:49.326Z,98163.00
2022-12-24T23:44:18.529Z,98157.00
2022-12-24T23:46:46.211Z,98160.00
2022-12-24T23:49:15.157Z,98157.00
2022-12-24T23:51:43.029Z,98164.00
2022-12-24T23:54:10.721Z,98170.00
2022-12-24T23:56:38.490Z,98172.00
2022-12-24T23:59:06.128Z,98174.00
